Time;durP1;ratioP1;P1;durP2;ratioP2;P2;SDS_P1;SDS_P2;PMS_P1;PMS_P2;Temp;Humidity;BMP_temperature;BMP_pressure;BME280_temperature;BME280_humidity;BME280_pressure;Samples;Min_cycle;Max_cycle;Signal;HPM_P1;HPM_P2
2023/07/18 00:01:35;;;;;;;3.27;2.20;;;17.40;98.00;;;;;;5032529;28;20494;-69
2023/07/18 00:04:02;;;;;;;3.30;2.07;;;17.30;98.00;;;;;;5032522;28;20466;-69
2023/07/18 00:06:30;;;;;;;4.47;2.53;;;17.20;98.00;;;;;;5014846;28;20462;-69
2023/07/18 00:08:57;;;;;;;3.20;2.10;;;17.10;98.00;;;;;;5014748;28;20462;-69
2023/07/18 00:11:24;;;;;;;3.97;2.20;;;17.00;98.00;;;;;;5014689;28;20865;-69
2023/07/18 00:13:52;;;;;;;4.90;2.37;;;17.10;98.00;;;;;;5032212;28;20454;-69
2023/07/18 00:16:23;;;;;;;2.70;1.97;;;17.20;98.00;;;;;;5031979;28;20892;-69
2023/07/18 00:18:50;;;;;;;3.40;2.30;;;17.30;98.00;;;;;;5032413;28;20485;-69
2023/07/18 00:21:17;;;;;;;4.47;2.33;;;17.40;98.00;;;;;;5032156;28;20463;-69
2023/07/18 00:23:44;;;;;;;3.63;2.10;;;17.40;98.00;;;;;;5014887;28;20962;-69
2023/07/18 00:26:11;;;;;;;3.50;2.30;;;17.30;98.00;;;;;;5014539;28;20565;-69
2023/07/18 00:28:38;;;;;;;3.80;2.20;;;17.20;98.00;;;;;;5014327;28;20458;-69
2023/07/18 00:31:07;;;;;;;4.10;2.33;;;17.30;98.00;;;;;;5031346;28;20478;-69
2023/07/18 00:33:36;;;;;;;4.37;2.17;;;17.30;98.00;;;;;;5031887;28;20466;-69
2023/07/18 00:36:04;;;;;;;2.83;2.07;;;17.30;98.00;;;;;;5031982;28;20464;-69
2023/07/18 00:38:33;;;;;;;3.30;2.10;;;17.10;98.00;;;;;;5031773;28;20465;-69
2023/07/18 00:41:00;;;;;;;3.77;2.20;;;17.20;98.00;;;;;;5031501;28;20471;-69
2023/07/18 00:43:32;;;;;;;3.70;2.53;;;17.10;98.00;;;;;;5031614;28;20467;-69
2023/07/18 00:45:59;;;;;;;5.93;2.37;;;17.10;98.00;;;;;;5031431;28;20459;-69
2023/07/18 00:48:28;;;;;;;4.30;2.40;;;17.10;98.00;;;;;;5013884;28;20475;-69
2023/07/18 00:50:59;;;;;;;5.07;2.60;;;16.90;98.00;;;;;;5031326;28;20490;-69
2023/07/18 00:53:27;;;;;;;5.67;2.83;;;16.80;98.00;;;;;;5031410;28;20472;-69
2023/07/18 00:55:55;;;;;;;3.80;2.43;;;16.60;98.00;;;;;;5031467;28;20462;-69
2023/07/18 00:58:24;;;;;;;3.53;2.40;;;16.60;98.00;;;;;;5031340;28;20494;-69
2023/07/18 01:00:51;;;;;;;5.80;2.67;;;16.80;98.00;;;;;;5031300;28;20457;-69
2023/07/18 01:03:20;;;;;;;4.60;2.43;;;16.70;98.00;;;;;;5031309;28;20447;-69
2023/07/18 01:05:49;;;;;;;4.90;2.47;;;16.60;98.00;;;;;;5031314;28;20467;-69
2023/07/18 01:08:16;;;;;;;4.70;2.30;;;16.50;98.00;;;;;;5031375;28;20466;-69
2023/07/18 01:10:43;;;;;;;4.20;2.40;;;16.50;98.00;;;;;;5013627;28;20512;-69
2023/07/18 01:13:11;;;;;;;3.70;2.57;;;16.50;98.00;;;;;;5031329;28;20466;-69
2023/07/18 01:15:38;;;;;;;3.17;2.10;;;16.50;98.00;;;;;;5031265;28;20473;-69
2023/07/18 01:18:09;;;;;;;3.50;2.53;;;16.70;98.00;;;;;;5031382;28;20831;-70
2023/07/18 01:20:37;;;;;;;3.30;2.50;;;16.60;98.00;;;;;;5031384;28;20482;-69
2023/07/18 01:23:05;;;;;;;9.33;3.10;;;16.50;98.00;;;;;;5031399;28;20960;-69
2023/07/18 01:25:33;;;;;;;3.23;2.40;;;16.60;98.00;;;;;;5031321;28;20447;-69
2023/07/18 01:28:01;;;;;;;3.43;2.20;;;16.60;98.00;;;;;;5033930;28;20458;-69
2023/07/18 01:30:29;;;;;;;4.53;2.37;;;16.50;98.00;;;;;;5035200;28;20509;-69
2023/07/18 01:32:57;;;;;;;5.60;2.97;;;16.30;98.00;;;;;;5035103;28;20491;-69
2023/07/18 01:35:26;;;;;;;4.73;2.50;;;16.30;98.00;;;;;;5035167;28;20485;-69
2023/07/18 01:37:53;;;;;;;4.77;2.63;;;16.40;98.00;;;;;;5035051;28;20757;-69
2023/07/18 01:40:22;;;;;;;8.23;2.40;;;16.30;98.00;;;;;;5034965;28;20495;-69
2023/07/18 01:42:51;;;;;;;5.30;2.60;;;16.30;98.00;;;;;;5017210;28;20554;-69
2023/07/18 01:45:19;;;;;;;4.07;2.80;;;16.30;98.00;;;;;;5034943;28;20557;-69
2023/07/18 01:47:48;;;;;;;2.73;2.10;;;16.40;98.00;;;;;;5034933;28;20553;-69
2023/07/18 01:50:15;;;;;;;4.53;2.23;;;16.30;98.00;;;;;;5034829;28;20961;-69
2023/07/18 01:52:42;;;;;;;4.87;2.30;;;16.10;98.00;;;;;;5017292;28;20486;-69
2023/07/18 01:55:10;;;;;;;4.20;2.47;;;15.90;98.00;;;;;;5034732;28;20861;-69
2023/07/18 01:57:49;;;;;;;4.03;2.30;;;15.90;98.00;;;;;;5034666;28;20509;-69
2023/07/18 02:00:19;;;;;;;4.17;2.43;;;16.00;98.00;;;;;;5034672;28;20516;-69
2023/07/18 02:02:48;;;;;;;5.50;2.40;;;16.00;98.00;;;;;;5017171;28;20462;-69
2023/07/18 02:05:17;;;;;;;3.50;2.43;;;15.90;98.00;;;;;;5034784;28;20462;-69
2023/07/18 02:07:44;;;;;;;4.20;2.87;;;15.90;98.00;;;;;;5034486;28;20542;-69
2023/07/18 02:10:11;;;;;;;8.00;2.50;;;16.00;98.00;;;;;;5034636;28;20458;-69
2023/07/18 02:12:38;;;;;;;3.80;2.27;;;15.90;98.00;;;;;;5034580;28;20513;-69
2023/07/18 02:15:09;;;;;;;3.73;2.10;;;15.90;98.00;;;;;;5034448;28;20458;-69
2023/07/18 02:17:36;;;;;;;3.83;2.50;;;15.90;98.00;;;;;;5034674;28;20500;-69
2023/07/18 02:20:06;;;;;;;5.07;2.23;;;15.90;98.00;;;;;;5034407;28;20874;-69
2023/07/18 02:22:35;;;;;;;3.33;2.20;;;15.90;98.00;;;;;;5034616;28;20454;-70
2023/07/18 02:25:03;;;;;;;4.27;2.40;;;15.80;98.00;;;;;;5033838;28;20450;-69
2023/07/18 02:27:30;;;;;;;6.80;2.40;;;15.90;98.00;;;;;;5034250;28;20524;-69
2023/07/18 02:29:57;;;;;;;3.13;2.30;;;15.90;98.00;;;;;;5034121;28;20520;-69
2023/07/18 02:32:26;;;;;;;3.90;2.37;;;15.80;98.00;;;;;;5034190;28;20486;-69
2023/07/18 02:34:53;;;;;;;3.00;2.10;;;15.80;98.00;;;;;;5016643;28;20470;-69
2023/07/18 02:37:20;;;;;;;2.97;2.30;;;15.80;98.00;;;;;;5033783;28;20446;-69
2023/07/18 02:39:48;;;;;;;3.80;2.20;;;15.70;98.00;;;;;;5033839;28;20466;-69
2023/07/18 02:42:19;;;;;;;3.93;2.30;;;15.50;98.00;;;;;;5033867;28;20552;-69
2023/07/18 02:44:46;;;;;;;3.20;2.20;;;15.40;98.00;;;;;;5033902;28;20454;-70
2023/07/18 02:47:13;;;;;;;3.77;2.20;;;15.30;98.00;;;;;;5033433;28;20466;-69
2023/07/18 02:49:42;;;;;;;3.17;1.90;;;15.40;98.00;;;;;;5033616;28;20485;-69
2023/07/18 02:52:09;;;;;;;4.00;2.17;;;15.60;98.00;;;;;;5033500;28;20548;-69
2023/07/18 02:54:36;;;;;;;4.70;2.47;;;15.60;98.00;;;;;;5033764;28;20751;-69
2023/07/18 02:57:04;;;;;;;4.57;2.70;;;15.70;98.00;;;;;;5016106;28;20447;-69
2023/07/18 02:59:32;;;;;;;3.50;2.33;;;15.50;98.00;;;;;;5033720;28;20517;-69
2023/07/18 03:01:59;;;;;;;3.87;1.97;;;15.50;98.00;;;;;;5033452;28;20462;-69
2023/07/18 03:04:27;;;;;;;5.80;2.50;;;15.30;98.00;;;;;;5033616;28;20887;-69
2023/07/18 03:06:55;;;;;;;3.60;2.17;;;15.20;98.00;;;;;;5033390;28;20974;-69
2023/07/18 03:09:23;;;;;;;2.70;2.10;;;15.00;98.00;;;;;;5033614;28;20466;-69
2023/07/18 03:11:50;;;;;;;4.40;2.43;;;15.10;98.00;;;;;;5033521;28;20486;-69
2023/07/18 03:14:18;;;;;;;3.27;2.23;;;14.90;98.00;;;;;;5033518;28;20494;-69
2023/07/18 03:16:47;;;;;;;3.90;2.30;;;14.90;98.00;;;;;;5033425;28;20459;-69
2023/07/18 03:19:15;;;;;;;4.47;2.53;;;15.00;98.00;;;;;;5033137;28;20461;-69
2023/07/18 03:21:43;;;;;;;4.00;2.47;;;15.00;98.00;;;;;;5033125;28;20537;-69
2023/07/18 03:24:11;;;;;;;3.80;2.13;;;15.00;98.00;;;;;;5033157;28;20484;-69
2023/07/18 03:26:39;;;;;;;5.77;2.43;;;14.90;98.00;;;;;;5032892;28;20455;-69
2023/07/18 03:29:06;;;;;;;3.07;2.07;;;14.80;98.00;;;;;;5033074;28;20979;-69
2023/07/18 03:31:33;;;;;;;3.00;2.17;;;14.80;98.00;;;;;;5032881;28;20505;-69
2023/07/18 03:34:01;;;;;;;5.73;2.20;;;14.90;98.00;;;;;;5032950;28;20458;-69
2023/07/18 03:36:28;;;;;;;9.33;2.13;;;15.00;98.00;;;;;;5015090;28;20529;-69
2023/07/18 03:39:03;;;;;;;4.00;2.83;;;15.10;98.00;;;;;;5032557;28;20455;-69
2023/07/18 03:41:32;;;;;;;3.87;2.50;;;15.00;98.00;;;;;;5016385;28;20557;-69
2023/07/18 03:44:00;;;;;;;3.10;2.27;;;15.10;98.00;;;;;;5032865;28;20463;-69
2023/07/18 03:46:27;;;;;;;4.23;2.20;;;15.10;98.00;;;;;;5032601;28;20461;-69
2023/07/18 03:48:54;;;;;;;5.83;2.47;;;15.10;98.00;;;;;;5014945;28;20459;-69
2023/07/18 03:51:21;;;;;;;4.70;2.30;;;15.10;98.00;;;;;;5014327;28;20980;-69
2023/07/18 03:53:50;;;;;;;4.33;2.30;;;14.80;98.00;;;;;;5015243;28;20462;-69
2023/07/18 03:56:17;;;;;;;2.40;1.90;;;14.80;98.00;;;;;;5032541;28;20461;-69
2023/07/18 03:58:46;;;;;;;2.93;2.20;;;14.70;98.00;;;;;;5032473;28;20451;-69
2023/07/18 04:01:21;;;;;;;3.70;2.30;;;14.80;98.00;;;;;;5032410;28;20508;-69
2023/07/18 04:03:48;;;;;;;2.83;2.10;;;14.90;98.00;;;;;;5032401;28;20491;-69
2023/07/18 04:06:15;;;;;;;2.97;1.93;;;15.00;98.00;;;;;;5032429;28;20454;-69
2023/07/18 04:08:43;;;;;;;5.43;2.20;;;15.10;98.00;;;;;;5032460;28;20462;-69
2023/07/18 04:11:10;;;;;;;3.17;2.40;;;15.20;98.00;;;;;;5032325;28;20952;-69
2023/07/18 04:13:37;;;;;;;2.50;2.00;;;15.20;98.00;;;;;;5032074;28;20545;-69
2023/07/18 04:16:07;;;;;;;3.13;2.10;;;15.20;98.00;;;;;;5014563;28;20538;-69
2023/07/18 04:18:34;;;;;;;5.80;2.63;;;15.10;98.00;;;;;;5031950;28;20451;-69
2023/07/18 04:21:02;;;;;;;4.90;2.37;;;15.20;98.00;;;;;;5032038;28;20545;-69
2023/07/18 04:23:33;;;;;;;3.40;2.27;;;15.30;98.00;;;;;;5031988;28;20459;-69
2023/07/18 04:26:01;;;;;;;4.63;2.37;;;15.20;98.00;;;;;;5031915;28;20458;-69
2023/07/18 04:28:29;;;;;;;6.30;2.37;;;15.20;98.00;;;;;;5031848;28;20488;-69
2023/07/18 04:30:57;;;;;;;3.53;2.33;;;15.10;98.00;;;;;;5031901;28;20455;-69
2023/07/18 04:33:25;;;;;;;4.33;2.40;;;15.10;98.00;;;;;;5031682;28;20494;-69
2023/07/18 04:35:54;;;;;;;6.00;2.60;;;15.20;98.00;;;;;;5031632;28;20458;-69
2023/07/18 04:38:21;;;;;;;4.90;2.03;;;15.30;98.00;;;;;;5031642;28;20454;-69
2023/07/18 04:40:49;;;;;;;5.50;2.70;;;15.40;98.00;;;;;;5031767;28;20461;-69
2023/07/18 04:43:16;;;;;;;5.33;2.60;;;15.40;98.00;;;;;;5031680;28;20458;-68
2023/07/18 04:45:44;;;;;;;4.43;2.77;;;15.20;98.00;;;;;;5031489;28;20463;-69
2023/07/18 04:48:12;;;;;;;3.93;2.20;;;15.20;98.00;;;;;;5031492;28;20486;-69
2023/07/18 04:50:42;;;;;;;4.07;2.40;;;15.40;98.00;;;;;;5031501;28;20551;-69
2023/07/18 04:53:09;;;;;;;3.30;2.23;;;15.50;98.00;;;;;;5031442;28;21088;-69
2023/07/18 04:55:36;;;;;;;5.90;2.50;;;15.40;98.00;;;;;;5031491;28;20466;-69
2023/07/18 04:58:07;;;;;;;9.77;2.77;;;15.40;98.00;;;;;;5031595;28;20474;-69
2023/07/18 05:00:35;;;;;;;4.37;2.40;;;15.40;98.00;;;;;;5014438;28;20802;-69
2023/07/18 05:03:09;;;;;;;4.97;2.43;;;15.50;98.00;;;;;;5013065;28;20462;-68
2023/07/18 05:05:36;;;;;;;4.40;2.70;;;15.50;98.00;;;;;;5031467;28;20890;-68
2023/07/18 05:08:05;;;;;;;5.80;2.80;;;15.50;98.00;;;;;;5031399;28;20458;-69
2023/07/18 05:10:32;;;;;;;4.57;2.70;;;15.40;98.00;;;;;;5031229;28;20465;-69
2023/07/18 05:12:59;;;;;;;5.70;3.30;;;15.50;98.00;;;;;;5031214;28;20903;-69
2023/07/18 05:15:27;;;;;;;8.03;2.80;;;15.50;98.00;;;;;;5031037;28;20520;-69
2023/07/18 05:17:54;;;;;;;5.80;2.67;;;15.50;98.00;;;;;;5031105;28;20467;-69
2023/07/18 05:20:21;;;;;;;4.03;2.50;;;15.50;98.00;;;;;;5031038;28;20520;-69
2023/07/18 05:22:48;;;;;;;5.63;2.60;;;15.60;98.00;;;;;;5013794;28;20509;-69
2023/07/18 05:25:17;;;;;;;5.60;2.80;;;15.70;98.00;;;;;;5031265;28;20466;-69
2023/07/18 05:27:45;;;;;;;3.60;2.50;;;15.80;98.00;;;;;;5013079;28;20458;-69
2023/07/18 05:30:13;;;;;;;4.97;2.83;;;15.80;98.00;;;;;;5031011;28;20452;-69
2023/07/18 05:32:41;;;;;;;7.53;2.73;;;15.90;98.00;;;;;;5030946;28;20565;-69
2023/07/18 05:35:11;;;;;;;4.23;2.50;;;16.00;98.00;;;;;;5013638;28;20459;-68
2023/07/18 05:37:39;;;;;;;4.60;2.67;;;16.00;98.00;;;;;;5030937;28;20907;-69
2023/07/18 05:40:09;;;;;;;6.80;2.60;;;16.20;98.00;;;;;;5013769;28;20458;-69
2023/07/18 05:42:38;;;;;;;4.27;2.60;;;16.30;98.00;;;;;;5030905;28;20965;-69
2023/07/18 05:45:07;;;;;;;4.97;2.60;;;16.40;98.00;;;;;;5030891;28;20462;-69
2023/07/18 05:47:35;;;;;;;5.00;3.00;;;16.60;98.00;;;;;;5030621;28;20458;-69
2023/07/18 05:50:03;;;;;;;4.77;3.03;;;16.70;98.00;;;;;;5030976;28;20534;-69
2023/07/18 05:52:30;;;;;;;5.20;2.47;;;16.90;98.00;;;;;;5030694;28;20490;-69
2023/07/18 05:54:57;;;;;;;4.90;3.23;;;16.90;98.00;;;;;;5031142;28;20451;-69
2023/07/18 05:57:24;;;;;;;5.23;2.90;;;17.00;98.00;;;;;;4997160;28;20520;-69
2023/07/18 05:59:52;;;;;;;5.03;3.07;;;17.10;98.00;;;;;;5031104;28;20465;-69
2023/07/18 06:02:21;;;;;;;4.10;2.73;;;17.20;98.00;;;;;;5013262;28;20521;-69
2023/07/18 06:04:49;;;;;;;3.97;2.60;;;17.30;98.00;;;;;;5013679;28;20486;-70
2023/07/18 06:07:17;;;;;;;7.40;3.17;;;17.40;98.00;;;;;;5030732;28;20459;-70
2023/07/18 06:09:44;;;;;;;4.80;2.73;;;17.50;98.00;;;;;;5030634;28;20462;-69
2023/07/18 06:12:12;;;;;;;3.30;2.63;;;17.60;98.00;;;;;;5030472;28;20463;-70
2023/07/18 06:14:39;;;;;;;4.27;2.70;;;17.80;98.00;;;;;;5016786;28;20977;-69
2023/07/18 06:17:08;;;;;;;5.00;2.63;;;18.00;98.00;;;;;;5016894;28;20524;-70
2023/07/18 06:19:35;;;;;;;4.33;2.90;;;18.00;98.00;;;;;;5034298;28;20953;-69
2023/07/18 06:22:02;;;;;;;4.03;2.17;;;18.00;98.00;;;;;;5034348;28;20461;-69
2023/07/18 06:24:30;;;;;;;5.47;3.07;;;18.00;98.00;;;;;;5034147;28;20533;-69
2023/07/18 06:26:57;;;;;;;7.37;2.80;;;18.10;98.00;;;;;;5034453;28;20632;-70
2023/07/18 06:29:25;;;;;;;4.13;2.63;;;18.30;98.00;;;;;;5034086;28;20450;-69
2023/07/18 06:31:56;;;;;;;5.20;2.90;;;18.40;98.00;;;;;;5016675;28;20537;-63
2023/07/18 06:34:25;;;;;;;4.47;2.83;;;18.50;98.00;;;;;;5034118;28;20555;-63
2023/07/18 06:36:52;;;;;;;4.93;2.67;;;18.50;98.00;;;;;;5033916;28;20555;-63
2023/07/18 06:39:20;;;;;;;4.87;3.00;;;18.60;98.00;;;;;;5033914;28;20462;-63
2023/07/18 06:41:47;;;;;;;3.60;2.60;;;18.70;98.00;;;;;;5033818;28;21085;-64
2023/07/18 06:44:16;;;;;;;5.83;3.00;;;18.80;98.00;;;;;;5033207;28;20601;-63
2023/07/18 06:46:43;;;;;;;4.33;2.63;;;19.10;98.00;;;;;;5015978;28;20907;-63
2023/07/18 06:49:10;;;;;;;4.37;2.60;;;19.10;98.00;;;;;;5017087;28;20477;-63
2023/07/18 06:51:39;;;;;;;2.90;2.10;;;19.40;98.00;;;;;;5034326;28;20465;-63
2023/07/18 06:54:06;;;;;;;4.80;2.70;;;19.90;98.00;;;;;;5033876;28;20487;-63
2023/07/18 06:56:33;;;;;;;4.00;2.60;;;20.30;98.00;;;;;;5033795;28;20459;-63
2023/07/18 06:59:01;;;;;;;8.00;4.00;;;20.50;98.00;;;;;;5033807;28;20462;-63
2023/07/18 07:01:29;;;;;;;4.63;2.70;;;20.80;98.00;;;;;;5016285;28;20466;-63
2023/07/18 07:03:58;;;;;;;5.73;2.97;;;21.10;98.00;;;;;;5016331;28;20921;-63
2023/07/18 07:06:25;;;;;;;3.23;2.60;;;21.30;98.00;;;;;;5033049;28;20481;-63
2023/07/18 07:08:54;;;;;;;5.23;2.87;;;21.50;98.00;;;;;;5033585;28;20458;-63
2023/07/18 07:11:21;;;;;;;4.37;2.60;;;21.60;98.00;;;;;;5033106;28;20530;-63
2023/07/18 07:13:48;;;;;;;3.77;2.40;;;21.60;98.00;;;;;;5033209;28;20492;-63
2023/07/18 07:16:15;;;;;;;4.87;2.60;;;21.60;98.00;;;;;;5033272;28;20462;-63
2023/07/18 07:18:42;;;;;;;4.37;2.73;;;21.70;98.00;;;;;;5033105;28;20450;-63
2023/07/18 07:21:10;;;;;;;5.43;2.63;;;21.80;98.00;;;;;;5015464;28;20458;-63
2023/07/18 07:23:37;;;;;;;5.70;2.40;;;22.00;98.00;;;;;;5032720;28;20461;-63
2023/07/18 07:26:06;;;;;;;3.30;2.30;;;22.20;97.90;;;;;;4998316;28;20454;-63
2023/07/18 07:28:35;;;;;;;5.77;2.60;;;22.20;97.20;;;;;;5032958;28;20548;-63
2023/07/18 07:31:03;;;;;;;3.90;2.10;;;22.20;98.00;;;;;;5032588;28;20604;-62
2023/07/18 07:33:30;;;;;;;3.63;2.43;;;22.30;98.00;;;;;;5032383;28;20486;-63
2023/07/18 07:35:57;;;;;;;3.00;2.20;;;22.40;98.00;;;;;;5032999;28;20462;-63
2023/07/18 07:38:24;;;;;;;4.80;2.50;;;22.60;96.30;;;;;;5015093;28;20463;-63
2023/07/18 07:40:51;;;;;;;5.30;2.70;;;22.80;96.40;;;;;;5015499;28;20459;-63
2023/07/18 07:43:20;;;;;;;4.27;2.20;;;22.90;95.70;;;;;;5032679;28;20517;-63
2023/07/18 07:45:47;;;;;;;3.20;2.30;;;23.00;96.50;;;;;;5032596;28;20454;-63
2023/07/18 07:48:15;;;;;;;4.87;1.97;;;23.20;94.70;;;;;;5032699;28;20517;-63
2023/07/18 07:50:44;;;;;;;5.00;2.70;;;23.20;93.80;;;;;;5032910;28;20493;-63
2023/07/18 07:53:11;;;;;;;2.90;2.00;;;23.30;95.10;;;;;;5032829;28;20475;-63
2023/07/18 07:55:39;;;;;;;3.30;2.17;;;23.30;94.70;;;;;;5014965;28;20925;-63
2023/07/18 07:58:06;;;;;;;3.60;2.43;;;23.40;93.60;;;;;;5014937;28;20455;-63
2023/07/18 08:00:34;;;;;;;7.17;2.40;;;23.40;94.30;;;;;;5032426;28;20466;-63
2023/07/18 08:03:02;;;;;;;7.47;2.73;;;23.60;93.30;;;;;;5032301;28;20462;-63
2023/07/18 08:05:29;;;;;;;4.93;2.40;;;23.70;93.70;;;;;;5032245;28;21038;-63
2023/07/18 08:07:56;;;;;;;4.00;2.37;;;23.80;92.10;;;;;;5032247;28;20454;-63
2023/07/18 08:10:24;;;;;;;3.60;2.20;;;23.80;90.90;;;;;;5014329;28;20462;-63
2023/07/18 08:12:51;;;;;;;3.33;2.47;;;23.90;93.10;;;;;;5032173;28;20549;-63
2023/07/18 08:15:18;;;;;;;3.90;2.13;;;24.10;92.50;;;;;;5032027;28;20458;-63
2023/07/18 08:17:47;;;;;;;3.10;2.40;;;24.10;92.30;;;;;;5030683;28;20466;-63
2023/07/18 08:20:14;;;;;;;3.93;2.27;;;24.20;92.20;;;;;;5030627;28;20462;-63
2023/07/18 08:22:42;;;;;;;3.00;2.30;;;24.20;90.50;;;;;;5031855;28;20967;-63
2023/07/18 08:25:10;;;;;;;2.47;2.10;;;24.30;89.60;;;;;;5031883;28;20454;-63
2023/07/18 08:27:38;;;;;;;3.17;2.30;;;24.40;90.80;;;;;;5031620;28;20541;-63
2023/07/18 08:30:07;;;;;;;2.50;2.00;;;24.50;91.00;;;;;;5030942;28;20451;-63
2023/07/18 08:32:34;;;;;;;3.50;2.00;;;24.70;90.90;;;;;;5018366;28;20463;-63
2023/07/18 08:35:13;;;;;;;2.53;1.90;;;24.90;90.00;;;;;;5011967;28;20522;-63
2023/07/18 08:37:40;;;;;;;2.40;1.90;;;25.00;89.00;;;;;;5011847;28;20532;-63
2023/07/18 08:40:09;;;;;;;2.50;2.07;;;24.90;85.70;;;;;;5011812;28;20489;-63
2023/07/18 08:42:38;;;;;;;3.80;2.30;;;25.10;88.80;;;;;;5011697;28;20582;-63
2023/07/18 08:45:08;;;;;;;3.77;1.93;;;25.20;88.40;;;;;;5011852;28;20562;-63
2023/07/18 08:47:35;;;;;;;4.80;2.20;;;25.40;87.50;;;;;;5011761;28;20510;-63
2023/07/18 08:50:04;;;;;;;2.90;1.97;;;25.40;84.90;;;;;;4992933;28;21009;-63
2023/07/18 08:52:31;;;;;;;3.30;2.13;;;25.60;86.00;;;;;;4992068;28;20461;-64
2023/07/18 08:54:58;;;;;;;2.60;1.97;;;25.60;85.20;;;;;;4992296;28;20492;-63
2023/07/18 08:57:30;;;;;;;3.17;2.23;;;25.60;85.30;;;;;;4992004;28;20464;-63
2023/07/18 08:59:58;;;;;;;2.90;2.03;;;25.60;85.30;;;;;;4975597;28;20867;-63
2023/07/18 09:02:25;;;;;;;3.70;2.23;;;25.70;85.30;;;;;;4991836;28;20456;-63
2023/07/18 09:04:52;;;;;;;3.67;2.30;;;25.80;85.10;;;;;;4991758;28;20464;-63
2023/07/18 09:07:26;;;;;;;2.80;2.30;;;25.90;85.60;;;;;;4991150;28;20464;-63
2023/07/18 09:09:53;;;;;;;2.90;2.07;;;26.10;87.10;;;;;;4991702;28;20456;-63
2023/07/18 09:12:20;;;;;;;2.60;2.03;;;26.30;86.50;;;;;;4991607;28;20456;-63
2023/07/18 09:14:48;;;;;;;5.80;2.47;;;26.40;86.20;;;;;;4991756;28;20512;-63
2023/07/18 09:17:15;;;;;;;3.83;2.60;;;26.60;85.20;;;;;;4991933;28;20519;-63
2023/07/18 09:19:44;;;;;;;3.40;2.40;;;26.70;84.90;;;;;;4991514;28;20452;-63
2023/07/18 09:22:13;;;;;;;6.50;2.37;;;26.70;85.00;;;;;;4958870;28;20467;-64
2023/07/18 09:24:42;;;;;;;4.57;2.70;;;26.80;83.60;;;;;;4992352;28;20456;-64
2023/07/18 09:27:14;;;;;;;3.43;2.13;;;26.80;84.60;;;;;;4992307;28;20494;-64
2023/07/18 09:29:45;;;;;;;3.83;2.50;;;26.90;83.30;;;;;;4992431;28;20542;-63
2023/07/18 09:32:17;;;;;;;2.73;2.10;;;27.10;83.80;;;;;;4995513;28;20515;-64
2023/07/18 09:34:52;;;;;;;4.87;2.60;;;27.10;84.10;;;;;;5011700;28;21036;-64
2023/07/18 09:37:19;;;;;;;4.40;2.50;;;27.20;84.00;;;;;;5000686;28;20542;-64
2023/07/18 09:39:49;;;;;;;4.00;2.77;;;27.40;84.70;;;;;;4992420;28;20464;-64
2023/07/18 09:42:18;;;;;;;4.10;2.30;;;27.60;85.00;;;;;;4975305;28;20548;-64
2023/07/18 09:44:48;;;;;;;3.97;2.27;;;27.70;82.50;;;;;;4975245;28;20456;-64
2023/07/18 09:47:15;;;;;;;3.13;2.27;;;27.80;82.40;;;;;;4994695;28;20539;-64
2023/07/18 09:49:44;;;;;;;4.60;2.53;;;27.80;81.00;;;;;;5015767;28;20455;-64
2023/07/18 09:52:11;;;;;;;3.37;2.30;;;27.90;81.50;;;;;;5001217;28;20947;-64
2023/07/18 09:54:41;;;;;;;3.37;2.40;;;28.00;81.50;;;;;;4995701;28;20903;-64
2023/07/18 09:57:10;;;;;;;3.77;2.47;;;28.10;82.30;;;;;;4996000;28;20555;-63
2023/07/18 09:59:40;;;;;;;3.83;2.50;;;28.30;80.50;;;;;;4995817;28;20472;-63
2023/07/18 10:02:10;;;;;;;4.33;2.47;;;28.40;79.90;;;;;;4995896;28;20816;-63
2023/07/18 10:04:37;;;;;;;3.20;2.53;;;28.60;80.80;;;;;;4995851;28;20977;-64
2023/07/18 10:07:09;;;;;;;3.77;2.60;;;28.80;80.80;;;;;;4995513;28;20463;-64
2023/07/18 10:09:37;;;;;;;3.30;2.50;;;28.90;79.90;;;;;;4995371;28;20507;-64
2023/07/18 10:12:11;;;;;;;3.53;2.73;;;29.00;78.30;;;;;;4993605;28;20543;-65
2023/07/18 10:14:57;;;;;;;3.43;2.37;;;29.00;79.90;;;;;;4994445;28;21096;-63
2023/07/18 10:17:42;;;;;;;5.90;2.33;;;29.10;79.20;;;;;;4977424;28;20460;-63
2023/07/18 10:20:13;;;;;;;4.47;3.00;;;29.00;79.20;;;;;;4995297;28;20467;-63
2023/07/18 10:22:48;;;;;;;5.20;3.20;;;28.90;80.30;;;;;;4994517;28;21139;-63
2023/07/18 10:25:19;;;;;;;3.90;2.60;;;28.70;80.40;;;;;;4995517;28;20488;-64
2023/07/18 10:27:48;;;;;;;7.43;3.00;;;28.40;80.40;;;;;;4977342;28;20815;-64
2023/07/18 10:30:17;;;;;;;4.37;2.70;;;28.10;81.00;;;;;;4994378;28;20519;-63
2023/07/18 10:32:52;;;;;;;4.23;2.60;;;28.00;81.40;;;;;;4994338;28;20909;-64
2023/07/18 10:35:20;;;;;;;5.00;2.80;;;27.80;82.40;;;;;;4994386;28;20539;-64
2023/07/18 10:37:52;;;;;;;4.27;2.77;;;27.70;83.70;;;;;;4977131;28;20464;-64
2023/07/18 10:40:38;;;;;;;4.00;2.80;;;27.60;83.20;;;;;;4994415;28;20955;-64
2023/07/18 10:43:10;;;;;;;4.10;2.73;;;27.50;82.80;;;;;;4977278;28;20849;-62
2023/07/18 10:45:39;;;;;;;4.80;2.80;;;27.30;83.80;;;;;;4995102;28;20490;-63
2023/07/18 10:48:13;;;;;;;3.37;2.57;;;27.20;85.70;;;;;;4994979;28;20475;-63
2023/07/18 10:50:41;;;;;;;4.67;3.23;;;27.10;86.00;;;;;;4994950;28;20998;-63
2023/07/18 10:53:14;;;;;;;5.10;3.20;;;27.00;85.80;;;;;;4994830;28;20452;-63
2023/07/18 10:55:41;;;;;;;4.60;2.87;;;27.00;85.50;;;;;;4994636;28;20495;-63
2023/07/18 10:58:16;;;;;;;5.90;3.30;;;27.10;83.90;;;;;;4994506;28;20854;-63
2023/07/18 11:00:44;;;;;;;4.00;2.80;;;27.30;85.00;;;;;;4992769;28;20834;-63
2023/07/18 11:03:20;;;;;;;4.53;3.03;;;27.70;84.50;;;;;;4976968;28;20519;-62
2023/07/18 11:05:49;;;;;;;6.50;3.30;;;28.10;82.30;;;;;;4994505;28;20495;-63
2023/07/18 11:08:26;;;;;;;4.00;2.50;;;28.20;81.90;;;;;;4994573;28;20701;-62
2023/07/18 11:10:58;;;;;;;6.80;3.40;;;28.20;81.30;;;;;;4994219;28;20491;-62
2023/07/18 11:13:31;;;;;;;4.07;2.60;;;28.30;80.80;;;;;;4994508;28;20519;-62
2023/07/18 11:16:01;;;;;;;3.90;2.50;;;28.30;81.70;;;;;;4994557;28;20484;-62
2023/07/18 11:18:32;;;;;;;5.30;3.00;;;28.40;81.70;;;;;;4994649;28;20465;-62
2023/07/18 11:21:02;;;;;;;5.00;3.10;;;28.20;82.50;;;;;;4994501;28;20515;-62
2023/07/18 11:23:30;;;;;;;5.57;3.20;;;28.00;82.10;;;;;;4994698;28;20560;-62
2023/07/18 11:25:58;;;;;;;4.53;2.90;;;27.70;82.40;;;;;;4994397;28;21010;-62
2023/07/18 11:28:32;;;;;;;4.30;2.90;;;27.50;82.70;;;;;;4994763;28;20449;-62
2023/07/18 11:30:59;;;;;;;4.90;3.13;;;27.40;84.50;;;;;;4994428;28;20464;-61
2023/07/18 11:33:29;;;;;;;4.07;3.00;;;27.10;84.80;;;;;;4994516;28;20527;-62
2023/07/18 11:35:56;;;;;;;3.50;2.63;;;27.00;85.70;;;;;;4994508;28;20571;-61
2023/07/18 11:38:24;;;;;;;5.27;3.07;;;26.80;87.00;;;;;;4994425;28;20515;-61
2023/07/18 11:40:52;;;;;;;7.67;3.20;;;26.60;85.70;;;;;;4994533;28;20452;-62
2023/07/18 11:43:19;;;;;;;4.90;3.10;;;26.50;87.30;;;;;;4994525;28;20464;-62
2023/07/18 11:45:48;;;;;;;5.40;3.10;;;26.30;87.80;;;;;;4994152;28;20453;-62
2023/07/18 11:48:22;;;;;;;7.37;3.73;;;26.20;87.70;;;;;;4993840;28;20473;-61
2023/07/18 11:50:49;;;;;;;6.03;3.47;;;26.20;87.50;;;;;;4994036;28;20587;-62
2023/07/18 11:53:26;;;;;;;6.67;3.60;;;26.20;87.30;;;;;;4993889;28;20464;-62
2023/07/18 11:55:54;;;;;;;6.70;3.20;;;26.10;87.90;;;;;;4993802;28;20578;-61
2023/07/18 11:58:21;;;;;;;4.60;3.20;;;26.00;88.60;;;;;;4993793;28;20859;-62
2023/07/18 12:00:50;;;;;;;3.90;2.80;;;26.00;90.10;;;;;;4993866;28;20452;-62
2023/07/18 12:03:17;;;;;;;5.30;3.00;;;25.90;92.40;;;;;;4993678;28;20448;-62
2023/07/18 12:05:44;;;;;;;6.33;3.33;;;25.80;93.20;;;;;;4993765;28;20461;-62
2023/07/18 12:08:13;;;;;;;5.13;3.20;;;25.90;92.20;;;;;;4993624;28;20456;-62
2023/07/18 12:10:41;;;;;;;5.33;3.00;;;26.10;91.20;;;;;;4993129;28;20457;-62
2023/07/18 12:13:08;;;;;;;5.70;3.50;;;26.20;90.80;;;;;;4993730;28;20471;-62
2023/07/18 12:15:35;;;;;;;4.20;2.97;;;26.30;90.30;;;;;;4993571;28;20484;-62
2023/07/18 12:18:04;;;;;;;5.40;2.97;;;26.40;89.80;;;;;;4993661;28;20459;-62
2023/07/18 12:20:31;;;;;;;4.80;3.10;;;26.60;91.00;;;;;;4993655;28;20468;-62
2023/07/18 12:22:59;;;;;;;4.47;3.00;;;26.70;93.90;;;;;;4993490;28;20531;-62
2023/07/18 12:25:31;;;;;;;3.53;2.77;;;26.70;93.80;;;;;;4993539;28;20460;-62
2023/07/18 12:27:58;;;;;;;4.90;3.10;;;26.80;94.30;;;;;;4993428;28;20453;-61
2023/07/18 12:30:26;;;;;;;7.90;3.20;;;26.90;93.20;;;;;;4993650;28;20460;-62
2023/07/18 12:32:54;;;;;;;5.70;4.00;;;27.00;90.50;;;;;;4993553;28;20461;-62
2023/07/18 12:35:23;;;;;;;6.17;3.30;;;27.10;90.40;;;;;;4993630;28;20488;-62
2023/07/18 12:37:54;;;;;;;5.53;3.27;;;27.40;92.50;;;;;;4993094;28;20460;-62
2023/07/18 12:40:21;;;;;;;4.80;3.00;;;27.70;89.30;;;;;;4993169;28;20456;-62
2023/07/18 12:42:48;;;;;;;4.33;2.73;;;28.00;88.30;;;;;;4993125;28;20833;-61
2023/07/18 12:45:16;;;;;;;5.90;3.30;;;28.20;87.60;;;;;;4993076;28;20456;-62
2023/07/18 12:47:44;;;;;;;4.13;3.03;;;28.60;87.00;;;;;;4992728;28;20452;-62
2023/07/18 12:50:13;;;;;;;4.00;2.83;;;28.90;85.70;;;;;;4992773;28;20452;-62
2023/07/18 12:52:41;;;;;;;5.83;3.40;;;29.00;85.70;;;;;;4992550;28;20465;-62
2023/07/18 12:55:10;;;;;;;5.33;3.27;;;29.00;85.90;;;;;;4992740;28;20570;-62